createdAt,value
2018-04-12T00:01:38.413Z,10.00
2018-04-12T00:04:06.647Z,8.93
2018-04-12T00:06:34.176Z,8.83
2018-04-12T00:09:01.653Z,12.13
2018-04-12T00:11:29.151Z,10.30
2018-04-12T00:13:57.383Z,10.27
2018-04-12T00:16:24.888Z,11.03
2018-04-12T00:18:53.163Z,12.90
2018-04-12T00:21:21.470Z,9.37
2018-04-12T00:23:49.029Z,9.90
2018-04-12T00:26:16.540Z,13.90
2018-04-12T00:28:44.824Z,9.50
2018-04-12T00:31:12.340Z,11.50
2018-04-12T00:33:39.828Z,10.07
2018-04-12T00:36:07.412Z,13.67
2018-04-12T00:38:35.769Z,11.90
2018-04-12T00:41:03.345Z,11.77
2018-04-12T00:43:31.577Z,11.53
2018-04-12T00:45:59.068Z,13.23
2018-04-12T00:48:26.539Z,12.17
2018-04-12T00:50:54.787Z,11.83
2018-04-12T00:53:34.124Z,11.97
2018-04-12T00:56:01.612Z,12.27
2018-04-12T00:58:29.862Z,10.90
2018-04-12T01:00:58.862Z,13.67
2018-04-12T01:03:27.152Z,12.53
2018-04-12T01:05:55.407Z,14.77
2018-04-12T01:08:22.891Z,12.20
2018-04-12T01:10:51.265Z,13.77
2018-04-12T01:13:19.877Z,13.30
2018-04-12T01:15:47.540Z,13.27
2018-04-12T01:18:15.044Z,14.43
2018-04-12T01:20:42.540Z,12.40
2018-04-12T01:23:10.093Z,13.03
2018-04-12T01:25:38.454Z,13.97
2018-04-12T01:28:05.920Z,13.90
2018-04-12T01:30:34.166Z,11.47
2018-04-12T01:33:13.343Z,11.07
2018-04-12T01:35:40.840Z,15.30
2018-04-12T01:38:08.396Z,12.43
2018-04-12T01:40:35.915Z,13.90
2018-04-12T01:43:03.353Z,13.13
2018-04-12T01:45:31.623Z,17.30
2018-04-12T01:47:59.107Z,13.40
2018-04-12T01:50:26.635Z,16.07
2018-04-12T01:52:54.125Z,15.33
2018-04-12T01:55:21.619Z,15.67
2018-04-12T01:57:49.152Z,16.03
2018-04-12T02:00:16.651Z,17.33
2018-04-12T02:02:44.136Z,13.50
2018-04-12T02:05:12.416Z,12.47
2018-04-12T02:07:40.689Z,16.37
2018-04-12T02:10:08.951Z,13.43
2018-04-12T02:12:36.432Z,12.20
2018-04-12T02:15:04.684Z,13.80
2018-04-12T02:17:32.161Z,14.17
2018-04-12T02:20:00.411Z,11.67
2018-04-12T02:22:27.895Z,12.00
2018-04-12T02:24:56.142Z,14.07
2018-04-12T02:27:24.409Z,12.50
2018-04-12T02:29:51.880Z,14.57
2018-04-12T02:32:20.130Z,14.60
2018-04-12T02:34:47.619Z,17.60
2018-04-12T02:37:15.219Z,16.47
2018-04-12T02:39:42.702Z,16.47
2018-04-12T02:42:10.310Z,15.57
2018-04-12T02:44:38.545Z,18.90
2018-04-12T02:47:06.048Z,19.33
2018-04-12T02:49:34.359Z,18.87
2018-04-12T02:52:01.860Z,16.57
2018-04-12T02:54:29.354Z,18.23
2018-04-12T02:56:56.884Z,16.87
2018-04-12T02:59:24.352Z,18.40
2018-04-12T03:01:52.604Z,18.33
2018-04-12T03:04:20.092Z,18.17
2018-04-12T03:06:48.404Z,17.00
2018-04-12T03:09:15.878Z,17.80
2018-04-12T03:11:43.388Z,16.93
2018-04-12T03:14:11.738Z,19.97
2018-04-12T03:16:40.062Z,22.40
2018-04-12T03:19:07.619Z,23.27
2018-04-12T03:21:35.142Z,19.60
2018-04-12T03:24:02.639Z,21.73
2018-04-12T03:26:30.131Z,23.77
2018-04-12T03:28:57.722Z,20.47
2018-04-12T03:31:26.025Z,22.17
2018-04-12T03:33:53.592Z,23.37
2018-04-12T03:36:21.150Z,22.67
2018-04-12T03:38:48.709Z,24.67
2018-04-12T03:41:16.262Z,23.13
2018-04-12T03:43:43.795Z,19.87
2018-04-12T03:46:12.038Z,28.10
2018-04-12T03:48:39.558Z,20.00
2018-04-12T03:51:07.187Z,23.73
2018-04-12T03:53:34.631Z,24.90
2018-04-12T03:56:02.879Z,25.77
2018-04-12T03:58:30.475Z,25.60
2018-04-12T04:00:58.726Z,23.03
2018-04-12T04:03:26.211Z,26.10
2018-04-12T04:05:54.478Z,27.63
2018-04-12T04:08:22.077Z,30.40
2018-04-12T04:10:49.591Z,24.73
2018-04-12T04:13:17.868Z,27.00
2018-04-12T04:15:57.352Z,27.40
2018-04-12T04:18:36.785Z,24.07
2018-04-12T04:21:09.867Z,25.53
2018-04-12T04:23:37.363Z,26.17
2018-04-12T04:26:04.834Z,23.13
2018-04-12T04:28:32.431Z,28.37
2018-04-12T04:31:00.728Z,26.60
2018-04-12T04:33:28.193Z,31.43
2018-04-12T04:35:55.696Z,29.67
2018-04-12T04:38:23.255Z,25.47
2018-04-12T04:40:50.819Z,26.20
2018-04-12T04:43:18.295Z,24.77
2018-04-12T04:45:46.602Z,24.87
2018-04-12T04:48:14.176Z,25.73
2018-04-12T04:50:41.651Z,29.03
2018-04-12T04:53:09.173Z,27.30
2018-04-12T04:55:36.696Z,24.93
2018-04-12T04:58:04.952Z,25.07
2018-04-12T05:00:32.447Z,24.73
2018-04-12T05:03:00.740Z,25.83
2018-04-12T05:05:28.233Z,26.47
2018-04-12T05:07:55.703Z,21.93
2018-04-12T05:10:23.194Z,23.27
2018-04-12T05:12:51.439Z,24.43
2018-04-12T05:15:18.931Z,26.73
2018-04-12T05:17:46.461Z,24.10
2018-04-12T05:20:13.952Z,27.33
2018-04-12T05:22:41.419Z,28.37
2018-04-12T05:25:08.911Z,22.93
2018-04-12T05:27:36.378Z,23.73
2018-04-12T05:30:03.868Z,24.00
2018-04-12T05:32:32.160Z,23.07
2018-04-12T05:34:59.658Z,23.90
2018-04-12T05:37:27.268Z,25.43
2018-04-12T05:39:54.787Z,25.03
2018-04-12T05:42:22.693Z,27.17
2018-04-12T05:44:50.242Z,28.97
2018-04-12T05:47:18.503Z,23.13
2018-04-12T05:49:46.001Z,26.07
2018-04-12T05:52:13.494Z,25.57
2018-04-12T05:54:41.103Z,28.47
2018-04-12T05:57:09.356Z,29.97
2018-04-12T05:59:37.644Z,23.40
2018-04-12T06:02:05.904Z,23.00
2018-04-12T06:04:33.397Z,30.20
2018-04-12T06:07:00.905Z,29.60
2018-04-12T06:09:28.504Z,26.00
2018-04-12T06:11:56.081Z,26.97
2018-04-12T06:14:23.571Z,30.57
2018-04-12T06:16:51.069Z,30.73
2018-04-12T06:19:19.307Z,28.23
2018-04-12T06:21:46.778Z,22.10
2018-04-12T06:24:14.295Z,28.53
2018-04-12T06:26:42.065Z,27.77
2018-04-12T06:29:09.809Z,28.20
2018-04-12T06:31:37.276Z,35.10
2018-04-12T06:34:04.795Z,31.90
2018-04-12T06:36:32.289Z,26.93
2018-04-12T06:38:59.813Z,28.30
2018-04-12T06:41:27.408Z,29.07
2018-04-12T06:43:54.901Z,24.30
2018-04-12T06:46:23.171Z,34.53
2018-04-12T06:48:50.773Z,30.37
2018-04-12T06:51:19.040Z,27.60
2018-04-12T06:53:46.556Z,29.10
2018-04-12T06:56:14.020Z,25.47
2018-04-12T06:58:41.517Z,27.10
2018-04-12T07:01:09.760Z,26.90
2018-04-12T07:03:37.253Z,27.57
2018-04-12T07:06:05.491Z,32.80
2018-04-12T07:08:32.973Z,27.43
2018-04-12T07:11:00.464Z,27.63
2018-04-12T07:13:27.951Z,25.47
2018-04-12T07:15:55.481Z,25.87
2018-04-12T07:18:23.061Z,24.33
2018-04-12T07:20:50.580Z,23.33
2018-04-12T07:23:18.816Z,28.33
2018-04-12T07:25:46.493Z,25.23
2018-04-12T07:28:13.974Z,22.73
2018-04-12T07:30:42.489Z,21.73
2018-04-12T07:33:09.967Z,27.37
2018-04-12T07:35:37.476Z,24.37
2018-04-12T07:38:05.773Z,24.47
2018-04-12T07:40:33.259Z,24.90
2018-04-12T07:43:00.728Z,22.50
2018-04-12T07:45:28.244Z,21.00
2018-04-12T07:47:55.800Z,22.93
2018-04-12T07:50:23.300Z,22.53
2018-04-12T07:52:50.812Z,18.80
2018-04-12T07:55:18.320Z,22.27
2018-04-12T07:57:46.151Z,42.53
2018-04-12T08:00:13.684Z,19.27
2018-04-12T08:02:41.180Z,19.97
2018-04-12T08:05:08.684Z,31.10
2018-04-12T08:07:36.186Z,25.00
2018-04-12T08:10:03.736Z,17.77
2018-04-12T08:12:31.317Z,20.03
2018-04-12T08:14:58.832Z,18.10
2018-04-12T08:17:27.092Z,18.60
2018-04-12T08:19:55.351Z,17.33
2018-04-12T08:22:22.859Z,17.87
2018-04-12T08:24:50.343Z,20.10
2018-04-12T08:27:17.845Z,17.90
2018-04-12T08:29:46.179Z,20.53
2018-04-12T08:32:13.717Z,17.30
2018-04-12T08:34:41.194Z,21.47
2018-04-12T08:37:08.704Z,17.67
2018-04-12T08:39:36.966Z,19.03
2018-04-12T08:42:05.251Z,16.93
2018-04-12T08:44:33.510Z,16.40
2018-04-12T08:47:01.049Z,19.23
2018-04-12T08:49:28.865Z,24.40
2018-04-12T08:51:56.411Z,18.83
2018-04-12T08:54:24.712Z,19.13
2018-04-12T08:56:52.237Z,21.00
2018-04-12T08:59:19.875Z,17.63
2018-04-12T09:01:47.704Z,19.33
2018-04-12T09:04:15.207Z,18.77
2018-04-12T09:06:44.222Z,19.07
2018-04-12T09:09:12.509Z,16.93
2018-04-12T09:11:39.988Z,50.07
2018-04-12T09:14:07.512Z,21.27
2018-04-12T09:16:34.981Z,21.00
2018-04-12T09:19:03.379Z,17.20
2018-04-12T09:21:31.005Z,19.23
2018-04-12T09:23:58.509Z,19.77
2018-04-12T09:26:26.040Z,25.60
2018-04-12T09:28:53.543Z,21.27
2018-04-12T09:31:21.856Z,23.03
2018-04-12T09:33:49.421Z,21.43
2018-04-12T09:36:17.731Z,22.77
2018-04-12T09:38:45.224Z,21.60
2018-04-12T09:41:12.726Z,23.13
2018-04-12T09:43:40.279Z,21.70
2018-04-12T09:46:08.518Z,20.37
2018-04-12T09:48:36.143Z,21.07
2018-04-12T09:51:03.619Z,24.90
2018-04-12T09:53:31.158Z,27.20
2018-04-12T09:55:58.709Z,23.37
2018-04-12T09:58:26.280Z,20.23
2018-04-12T10:00:55.562Z,21.07
2018-04-12T10:03:23.051Z,26.37
2018-04-12T10:05:56.153Z,25.13
2018-04-12T10:08:28.516Z,28.57
2018-04-12T10:10:56.013Z,30.43
2018-04-12T10:13:24.289Z,18.03
2018-04-12T10:15:51.778Z,19.27
2018-04-12T10:18:19.262Z,19.37
2018-04-12T10:20:46.803Z,15.23
2018-04-12T10:23:14.364Z,18.80
2018-04-12T10:25:41.890Z,13.40
2018-04-12T10:28:10.167Z,14.40
2018-04-12T10:30:38.433Z,11.83
2018-04-12T10:33:05.911Z,12.03
2018-04-12T10:35:33.386Z,13.03
2018-04-12T10:38:00.916Z,21.40
2018-04-12T10:40:29.145Z,13.30
2018-04-12T10:42:56.637Z,9.87
2018-04-12T10:45:24.143Z,14.27
2018-04-12T10:47:52.377Z,11.80
2018-04-12T10:50:20.607Z,11.30
2018-04-12T10:52:48.111Z,11.57
2018-04-12T10:55:16.352Z,11.77
2018-04-12T10:57:43.863Z,8.53
2018-04-12T11:00:11.418Z,10.33
2018-04-12T11:02:38.907Z,9.20
2018-04-12T11:05:06.430Z,13.20
2018-04-12T11:07:33.914Z,11.30
2018-04-12T11:10:01.393Z,12.47
2018-04-12T11:12:28.905Z,13.30
2018-04-12T11:14:56.452Z,11.70
2018-04-12T11:17:24.688Z,11.60
2018-04-12T11:19:52.184Z,14.80
2018-04-12T11:22:19.652Z,12.13
2018-04-12T11:24:47.916Z,10.47
2018-04-12T11:27:16.223Z,12.37
2018-04-12T11:29:44.488Z,13.80
2018-04-12T11:32:12.028Z,14.60
2018-04-12T11:34:40.388Z,18.20
2018-04-12T11:37:08.348Z,17.23
2018-04-12T11:39:35.952Z,12.80
2018-04-12T11:42:03.418Z,15.73
2018-04-12T11:44:31.011Z,18.10
2018-04-12T11:46:58.487Z,15.33
2018-04-12T11:49:25.979Z,16.47
2018-04-12T11:51:53.536Z,14.70
2018-04-12T11:54:21.887Z,16.33
2018-04-12T11:56:49.384Z,14.73
2018-04-12T11:59:16.858Z,17.60
2018-04-12T12:01:44.463Z,16.93
2018-04-12T12:04:11.912Z,14.37
2018-04-12T12:06:39.508Z,16.83
2018-04-12T12:09:07.005Z,18.03
2018-04-12T12:11:34.500Z,18.10
2018-04-12T12:14:02.759Z,16.17
2018-04-12T12:18:55.931Z,19.30
2018-04-12T12:21:23.420Z,19.97
2018-04-12T12:23:51.793Z,16.90
2018-04-12T12:26:19.213Z,16.77
2018-04-12T12:28:46.719Z,19.47
2018-04-12T12:31:14.971Z,15.33
2018-04-12T12:33:43.963Z,20.27
2018-04-12T12:36:11.448Z,18.73
2018-04-12T12:38:38.987Z,16.00
2018-04-12T12:41:07.302Z,18.70
2018-04-12T12:43:34.863Z,13.67
2018-04-12T12:46:02.339Z,16.03
2018-04-12T12:48:29.886Z,12.63
2018-04-12T12:50:57.360Z,16.57
2018-04-12T12:53:24.953Z,11.57
2018-04-12T12:55:52.474Z,15.57
2018-04-12T12:58:19.940Z,12.73
2018-04-12T13:00:47.448Z,16.53
2018-04-12T13:03:15.720Z,21.03
2018-04-12T13:05:43.959Z,14.77
2018-04-12T13:08:11.460Z,16.27
2018-04-12T13:10:39.704Z,17.93
2018-04-12T13:13:07.188Z,19.57
2018-04-12T13:15:36.461Z,13.53
2018-04-12T13:18:03.988Z,17.57
2018-04-12T13:20:31.523Z,16.13
2018-04-12T13:22:59.010Z,14.33
2018-04-12T13:25:26.506Z,15.47
2018-04-12T13:27:54.778Z,15.73
2018-04-12T13:30:22.353Z,17.87
2018-04-12T13:32:50.622Z,14.50
2018-04-12T13:35:18.212Z,16.50
2018-04-12T13:37:45.788Z,18.60
2018-04-12T13:40:13.286Z,16.47
2018-04-12T13:42:40.837Z,17.20
2018-04-12T13:45:09.116Z,15.90
2018-04-12T13:47:36.603Z,18.30
2018-04-12T13:50:04.997Z,17.27
2018-04-12T13:52:39.237Z,16.57
2018-04-12T13:55:06.778Z,18.53
2018-04-12T13:57:35.009Z,17.63
2018-04-12T14:00:02.511Z,16.87
2018-04-12T14:02:30.021Z,20.20
2018-04-12T14:04:57.517Z,17.50
2018-04-12T14:07:25.074Z,22.70
2018-04-12T14:09:52.575Z,19.93
2018-04-12T14:12:20.133Z,21.47
2018-04-12T14:14:47.650Z,19.60
2018-04-12T14:17:15.282Z,22.13
2018-04-12T14:19:42.769Z,16.43
2018-04-12T14:22:10.339Z,15.70
2018-04-12T14:24:37.849Z,17.97
2018-04-12T14:27:05.309Z,17.37
2018-04-12T14:29:33.136Z,16.47
2018-04-12T14:32:00.621Z,16.27
2018-04-12T14:34:28.103Z,20.90
2018-04-12T14:36:55.581Z,19.83
2018-04-12T14:39:23.247Z,19.70
2018-04-12T14:41:50.966Z,16.73
2018-04-12T14:44:19.260Z,16.27
2018-04-12T14:46:47.490Z,18.43
2018-04-12T14:49:14.992Z,21.17
2018-04-12T14:51:43.220Z,20.20
2018-04-12T14:54:10.718Z,18.17
2018-04-12T14:56:38.959Z,16.67
2018-04-12T14:59:06.452Z,18.13
2018-04-12T15:01:34.712Z,16.27
2018-04-12T15:04:02.472Z,17.93
2018-04-12T15:06:29.938Z,15.87
2018-04-12T15:08:57.437Z,17.10
2018-04-12T15:11:24.953Z,14.87
2018-04-12T15:13:52.434Z,16.17
2018-04-12T15:16:20.703Z,15.33
2018-04-12T15:18:49.026Z,16.00
2018-04-12T15:21:16.428Z,16.93
2018-04-12T15:23:43.921Z,22.43
2018-04-12T15:26:11.405Z,17.27
2018-04-12T15:28:38.912Z,16.37
2018-04-12T15:31:07.148Z,18.57
2018-04-12T15:33:34.617Z,15.80
2018-04-12T15:36:02.378Z,15.63
2018-04-12T15:38:29.967Z,17.03
2018-04-12T15:40:58.228Z,15.57
2018-04-12T15:43:25.717Z,19.47
2018-04-12T15:45:53.204Z,14.53
2018-04-12T15:48:20.752Z,14.70
2018-04-12T15:50:48.236Z,14.73
2018-04-12T15:53:15.728Z,13.43
2018-04-12T15:55:44.004Z,15.50
2018-04-12T15:58:12.283Z,12.83
2018-04-12T16:00:40.560Z,14.83
2018-04-12T16:03:08.794Z,14.10
2018-04-12T16:05:36.300Z,16.50
2018-04-12T16:08:05.262Z,16.97
2018-04-12T16:10:32.775Z,12.50
2018-04-12T16:13:00.259Z,14.10
2018-04-12T16:15:27.753Z,15.27
2018-04-12T16:17:56.016Z,15.83
2018-04-12T16:20:23.508Z,13.13
2018-04-12T16:22:50.995Z,12.67
2018-04-12T16:25:18.489Z,14.13
2018-04-12T16:27:46.064Z,15.23
2018-04-12T16:30:14.316Z,18.03
2018-04-12T16:32:41.811Z,14.90
2018-04-12T16:35:09.336Z,13.23
2018-04-12T16:37:37.740Z,14.07
2018-04-12T16:40:05.987Z,14.90
2018-04-12T16:42:33.469Z,16.47
2018-04-12T16:45:01.721Z,17.17
2018-04-12T16:47:29.204Z,16.70
2018-04-12T16:49:57.520Z,16.03
2018-04-12T16:52:25.025Z,16.13
2018-04-12T16:54:52.522Z,15.47
2018-04-12T16:57:20.001Z,15.70
2018-04-12T16:59:47.502Z,15.87
2018-04-12T17:02:15.747Z,13.20
2018-04-12T17:04:43.237Z,15.87
2018-04-12T17:07:11.472Z,14.23
2018-04-12T17:09:39.067Z,14.00
2018-04-12T17:12:06.569Z,13.23
2018-04-12T17:14:34.064Z,18.70
2018-04-12T17:17:01.536Z,14.20
2018-04-12T17:19:29.013Z,14.47
2018-04-12T17:21:57.245Z,16.33
2018-04-12T17:24:24.742Z,13.53
2018-04-12T17:26:52.974Z,17.83
2018-04-12T17:29:20.463Z,18.13
2018-04-12T17:31:47.948Z,21.00
2018-04-12T17:34:15.450Z,15.77
2018-04-12T17:36:42.974Z,17.13
2018-04-12T17:39:10.459Z,20.43
2018-04-12T17:41:37.951Z,15.20
2018-04-12T17:44:05.423Z,12.17
2018-04-12T17:46:33.684Z,8.07
2018-04-12T17:49:01.161Z,7.07
2018-04-12T17:51:29.456Z,8.97
2018-04-12T17:53:56.936Z,7.73
2018-04-12T17:56:24.438Z,7.23
2018-04-12T17:58:52.672Z,5.73
2018-04-12T18:01:20.167Z,4.77
2018-04-12T18:03:48.412Z,7.80
2018-04-12T18:06:15.940Z,9.60
2018-04-12T18:08:44.547Z,9.83
2018-04-12T18:11:12.062Z,6.40
2018-04-12T18:13:40.308Z,7.20
2018-04-12T18:16:07.797Z,10.97
2018-04-12T18:18:36.015Z,7.07
2018-04-12T18:21:03.508Z,8.37
2018-04-12T18:23:31.019Z,6.30
2018-04-12T18:25:58.537Z,11.67
2018-04-12T18:28:26.764Z,6.47
2018-04-12T18:30:54.248Z,6.73
2018-04-12T18:33:21.708Z,5.73
2018-04-12T18:35:49.194Z,8.33
2018-04-12T18:38:16.667Z,7.87
2018-04-12T18:40:44.147Z,10.87
2018-04-12T18:43:11.623Z,9.70
2018-04-12T18:45:39.183Z,13.83
2018-04-12T18:48:06.640Z,10.88
2018-04-12T18:50:34.125Z,8.13
2018-04-12T18:53:02.361Z,8.67
2018-04-12T18:55:30.006Z,7.70
2018-04-12T18:57:57.463Z,8.03
2018-04-12T19:00:24.972Z,4.83
2018-04-12T19:02:52.575Z,6.70
2018-04-12T19:05:20.091Z,6.87
2018-04-12T19:07:47.555Z,11.67
2018-04-12T19:10:15.055Z,7.50
2018-04-12T19:12:42.523Z,7.43
2018-04-12T19:15:10.062Z,5.80
2018-04-12T19:17:37.545Z,5.70
2018-04-12T19:20:05.011Z,9.23
2018-04-12T19:22:32.623Z,5.03
2018-04-12T19:25:00.140Z,5.10
2018-04-12T19:27:27.636Z,6.37
2018-04-12T19:29:55.213Z,5.70
2018-04-12T19:32:22.687Z,7.67
2018-04-12T19:34:50.220Z,6.60
2018-04-12T19:37:17.687Z,6.83
2018-04-12T19:39:45.205Z,8.77
2018-04-12T19:42:12.704Z,9.63
2018-04-12T19:44:40.198Z,7.63
2018-04-12T19:47:07.673Z,10.67
2018-04-12T19:49:35.132Z,6.20
2018-04-12T19:52:02.738Z,7.10
2018-04-12T19:54:30.260Z,7.40
2018-04-12T19:56:58.573Z,7.70
2018-04-12T19:59:26.201Z,9.80
2018-04-12T20:01:54.484Z,12.23
2018-04-12T20:04:22.757Z,14.07
2018-04-12T20:06:51.028Z,11.40
2018-04-12T20:09:19.364Z,12.27
2018-04-12T20:11:46.851Z,8.20
2018-04-12T20:14:14.325Z,9.83
2018-04-12T20:16:42.606Z,13.90
2018-04-12T20:19:10.877Z,8.93
2018-04-12T20:21:39.180Z,8.27
2018-04-12T20:24:06.657Z,8.73
2018-04-12T20:26:34.152Z,12.17
2018-04-12T20:29:01.861Z,13.83
2018-04-12T20:31:29.348Z,12.67
2018-04-12T20:33:56.920Z,10.33
2018-04-12T20:36:26.226Z,12.20
2018-04-12T20:38:54.492Z,11.20
2018-04-12T20:41:23.484Z,7.90
2018-04-12T20:43:50.963Z,7.13
2018-04-12T20:46:19.230Z,6.43
2018-04-12T20:48:46.704Z,10.20
2018-04-12T20:51:14.970Z,10.10
2018-04-12T20:53:43.209Z,10.70
2018-04-12T20:56:10.740Z,10.37
2018-04-12T20:58:38.318Z,7.80
2018-04-12T21:01:05.858Z,6.70
2018-04-12T21:03:33.318Z,6.03
2018-04-12T21:06:00.998Z,10.47
2018-04-12T21:08:28.536Z,8.00
2018-04-12T21:10:56.064Z,7.77
2018-04-12T21:13:24.519Z,9.30
2018-04-12T21:15:53.364Z,8.90
2018-04-12T21:18:20.835Z,7.87
2018-04-12T21:20:48.319Z,9.17
2018-04-12T21:23:15.835Z,8.53
2018-04-12T21:25:43.314Z,6.57
2018-04-12T21:28:10.823Z,9.17
2018-04-12T21:30:39.126Z,6.80
2018-04-12T21:33:06.605Z,6.63
2018-04-12T21:35:34.127Z,6.33
2018-04-12T21:38:02.353Z,8.53
2018-04-12T21:40:29.852Z,6.87
2018-04-12T21:42:58.082Z,5.80
2018-04-12T21:45:25.567Z,10.57
2018-04-12T21:47:54.565Z,9.73
2018-04-12T21:50:22.820Z,7.07
2018-04-12T21:52:50.277Z,5.97
2018-04-12T21:55:17.758Z,8.87
2018-04-12T21:57:46.074Z,7.83
2018-04-12T22:00:13.553Z,10.03
2018-04-12T22:02:41.050Z,7.13
2018-04-12T22:05:09.442Z,7.50
2018-04-12T22:07:37.696Z,6.77
2018-04-12T22:10:05.155Z,9.40
2018-04-12T22:12:33.431Z,6.47
2018-04-12T22:15:01.754Z,9.10
2018-04-12T22:17:29.252Z,7.67
2018-04-12T22:19:56.729Z,10.53
2018-04-12T22:22:24.986Z,9.17
2018-04-12T22:24:52.455Z,6.50
2018-04-12T22:27:19.963Z,6.97
2018-04-12T22:29:47.431Z,7.30
2018-04-12T22:32:14.924Z,5.87
2018-04-12T22:34:42.488Z,7.23
2018-04-12T22:37:10.756Z,6.37
2018-04-12T22:39:38.283Z,15.50
2018-04-12T22:42:05.759Z,8.23
2018-04-12T22:44:33.251Z,8.90
2018-04-12T22:47:01.504Z,5.87
2018-04-12T22:49:28.967Z,7.17
2018-04-12T22:51:57.963Z,9.60
2018-04-12T22:54:25.441Z,5.60
2018-04-12T22:56:53.692Z,8.40
2018-04-12T22:59:21.189Z,7.57
2018-04-12T23:01:48.729Z,5.77
2018-04-12T23:04:16.972Z,6.93
2018-04-12T23:06:44.457Z,5.33
2018-04-12T23:09:12.703Z,4.60
2018-04-12T23:11:40.192Z,7.43
2018-04-12T23:14:08.448Z,7.33
2018-04-12T23:16:35.926Z,9.03
2018-04-12T23:19:04.191Z,10.43
2018-04-12T23:21:31.685Z,6.23
2018-04-12T23:23:59.208Z,9.67
2018-04-12T23:26:26.748Z,12.27
2018-04-12T23:28:54.233Z,8.87
2018-04-12T23:31:21.760Z,6.37
2018-04-12T23:33:49.287Z,6.53
2018-04-12T23:36:17.561Z,12.77
2018-04-12T23:38:45.787Z,8.30
2018-04-12T23:41:13.304Z,7.00
2018-04-12T23:43:40.791Z,7.57
2018-04-12T23:46:08.273Z,7.57
2018-04-12T23:48:35.759Z,8.00
2018-04-12T23:51:03.248Z,8.63
2018-04-12T23:53:30.821Z,9.30
2018-04-12T23:55:58.348Z,8.80
2018-04-12T23:58:26.593Z,11.13
